createdAt,value
2018-04-23T00:00:13.994Z,99.90
2018-04-23T00:05:23.747Z,95.10
2018-04-23T00:07:51.468Z,99.90
2018-04-23T00:10:19.920Z,95.30
2018-04-23T00:12:52.696Z,95.20
2018-04-23T00:15:20.384Z,99.10
2018-04-23T00:17:49.719Z,94.90
2018-04-23T00:20:18.202Z,94.80
2018-04-23T00:22:48.779Z,94.90
2018-04-23T00:25:16.469Z,99.90
2018-04-23T00:27:45.932Z,95.10
2018-04-23T00:30:13.666Z,99.90
2018-04-23T00:32:42.425Z,98.10
2018-04-23T00:35:10.134Z,99.20
2018-04-23T00:37:52.659Z,94.60
2018-04-23T00:40:20.790Z,96.70
2018-04-23T00:42:48.512Z,99.90
2018-04-23T00:45:16.192Z,98.80
2018-04-23T00:47:51.071Z,94.90
2018-04-23T00:50:18.888Z,99.90
2018-04-23T00:53:03.090Z,94.80
2018-04-23T00:55:30.851Z,99.90
2018-04-23T01:00:40.013Z,94.60
2018-04-23T01:03:07.733Z,98.70
2018-04-23T01:05:35.436Z,99.90
2018-04-23T01:08:04.032Z,94.50
2018-04-23T01:10:32.190Z,94.60
2018-04-23T01:13:02.690Z,94.60
2018-04-23T01:15:30.444Z,99.90
2018-04-23T01:17:58.958Z,94.50
2018-04-23T01:20:27.085Z,94.70
2018-04-23T01:22:59.574Z,99.90
2018-04-23T01:25:27.725Z,94.70
2018-04-23T01:27:56.815Z,96.00
2018-04-23T01:30:25.462Z,94.70
2018-04-23T01:32:53.930Z,94.50
2018-04-23T01:35:22.414Z,94.40
2018-04-23T01:37:50.619Z,94.40
2018-04-23T01:40:18.300Z,99.90
2018-04-23T01:42:51.567Z,94.40
2018-04-23T01:45:19.255Z,99.90
2018-04-23T01:47:49.353Z,94.30
2018-04-23T01:50:17.801Z,94.30
2018-04-23T01:53:04.552Z,98.10
2018-04-23T01:55:32.287Z,99.40
2018-04-23T01:58:17.508Z,99.90
2018-04-23T02:00:45.650Z,93.90
2018-04-23T02:03:28.959Z,93.70
2018-04-23T02:05:57.082Z,99.80
2018-04-23T02:08:24.848Z,98.30
2018-04-23T02:10:53.065Z,94.30
2018-04-23T02:16:03.519Z,99.90
2018-04-23T02:18:31.270Z,99.90
2018-04-23T02:20:59.753Z,94.00
2018-04-23T02:23:32.226Z,98.40
2018-04-23T02:25:59.956Z,99.90
2018-04-23T02:28:29.612Z,96.00
2018-04-23T02:30:57.736Z,93.40
2018-04-23T02:33:29.751Z,93.00
2018-04-23T02:35:58.249Z,92.60
2018-04-23T02:38:26.710Z,92.40
2018-04-23T02:40:55.317Z,92.20
2018-04-23T02:43:26.953Z,92.20
2018-04-23T02:45:55.803Z,92.60
2018-04-23T02:48:25.425Z,92.40
2018-04-23T02:50:53.503Z,97.70
2018-04-23T02:53:42.661Z,91.80
2018-04-23T02:56:10.433Z,98.10
2018-04-23T02:58:48.453Z,92.00
2018-04-23T03:01:16.199Z,98.30
2018-04-23T03:03:44.379Z,92.20
2018-04-23T03:06:12.200Z,98.20
2018-04-23T03:08:44.605Z,94.30
2018-04-23T03:11:13.112Z,91.80
2018-04-23T03:13:46.267Z,91.50
2018-04-23T03:16:18.151Z,92.00
2018-04-23T03:18:45.946Z,97.90
2018-04-23T03:21:14.441Z,91.50
2018-04-23T03:23:43.289Z,91.40
2018-04-23T03:26:12.797Z,91.80
2018-04-23T03:28:40.880Z,93.70
2018-04-23T03:31:14.328Z,98.20
2018-04-23T03:33:43.181Z,92.00
2018-04-23T03:36:11.732Z,91.90
2018-04-23T03:38:39.527Z,98.10
2018-04-23T03:41:07.221Z,98.10
2018-04-23T03:43:35.714Z,92.10
2018-04-23T03:46:05.255Z,92.70
2018-04-23T03:48:33.506Z,94.60
2018-04-23T03:51:01.291Z,98.60
2018-04-23T03:53:28.940Z,98.60
2018-04-23T03:55:59.017Z,99.00
2018-04-23T03:58:27.467Z,92.50
2018-04-23T04:00:56.010Z,92.60
2018-04-23T04:03:23.727Z,97.10
2018-04-23T04:05:53.117Z,92.60
2018-04-23T04:08:20.814Z,97.60
2018-04-23T04:10:48.538Z,98.80
2018-04-23T04:16:25.433Z,98.90
2018-04-23T04:18:53.968Z,92.90
2018-04-23T04:21:24.104Z,92.90
2018-04-23T04:23:52.206Z,92.90
2018-04-23T04:26:38.530Z,93.20
2018-04-23T04:29:07.469Z,93.00
2018-04-23T04:31:40.933Z,93.20
2018-04-23T04:34:10.226Z,93.50
2018-04-23T04:36:38.082Z,99.60
2018-04-23T04:39:06.125Z,95.70
2018-04-23T04:41:41.863Z,98.40
2018-04-23T04:44:09.967Z,95.20
2018-04-23T04:46:38.481Z,93.50
2018-04-23T04:49:06.914Z,93.70
2018-04-23T04:51:36.145Z,95.20
2018-04-23T04:54:03.903Z,98.50
2018-04-23T04:56:40.200Z,95.30
2018-04-23T04:59:08.338Z,93.20
2018-04-23T05:04:48.356Z,93.00
2018-04-23T05:07:16.477Z,92.60
2018-04-23T05:09:44.194Z,98.30
2018-04-23T05:12:12.334Z,92.80
2018-04-23T05:14:42.086Z,98.00
2018-04-23T05:17:09.751Z,98.50
2018-04-23T05:19:37.512Z,98.40
2018-04-23T05:22:05.201Z,98.20
2018-04-23T05:24:54.834Z,93.40
2018-04-23T05:27:22.532Z,98.50
2018-04-23T05:29:51.556Z,93.00
2018-04-23T05:32:19.269Z,98.00
2018-04-23T05:35:07.163Z,93.10
2018-04-23T05:37:35.209Z,93.00
2018-04-23T05:40:12.362Z,92.90
2018-04-23T05:42:40.492Z,92.80
2018-04-23T05:45:13.518Z,98.10
2018-04-23T05:47:41.248Z,97.60
2018-04-23T05:50:13.725Z,92.30
2018-04-23T05:52:41.865Z,92.20
2018-04-23T05:55:14.108Z,93.80
2018-04-23T05:57:42.225Z,92.10
2018-04-23T06:00:20.914Z,97.50
2018-04-23T06:02:49.058Z,91.80
2018-04-23T06:05:16.797Z,97.30
2018-04-23T06:07:45.324Z,91.70
2018-04-23T06:10:13.792Z,91.70
2018-04-23T06:12:42.243Z,91.20
2018-04-23T06:15:16.050Z,91.30
2018-04-23T06:17:44.538Z,90.70
2018-04-23T06:20:27.161Z,90.50
2018-04-23T06:22:54.878Z,93.20
2018-04-23T06:25:22.598Z,96.30
2018-04-23T06:27:50.692Z,91.30
2018-04-23T06:30:29.285Z,96.20
2018-04-23T06:32:57.028Z,95.40
2018-04-23T06:35:29.549Z,89.00
2018-04-23T06:37:57.700Z,89.00
2018-04-23T06:40:29.090Z,94.40
2018-04-23T06:42:56.812Z,93.90
2018-04-23T06:45:25.891Z,93.90
2018-04-23T06:47:53.680Z,94.10
2018-04-23T06:50:21.346Z,93.60
2018-04-23T06:52:49.847Z,85.90
2018-04-23T06:58:33.625Z,86.20
2018-04-23T07:01:01.768Z,85.50
2018-04-23T07:03:29.490Z,93.00
2018-04-23T07:05:57.570Z,86.40
2018-04-23T07:08:39.676Z,85.70
2018-04-23T07:11:07.794Z,85.90
2018-04-23T07:13:43.132Z,93.00
2018-04-23T07:16:10.857Z,93.20
2018-04-23T07:18:40.214Z,85.80
2018-04-23T07:21:08.249Z,93.60
2018-04-23T07:23:38.706Z,85.70
2018-04-23T07:26:06.471Z,93.80
2018-04-23T07:28:41.467Z,86.30
2018-04-23T07:31:09.212Z,91.60
2018-04-23T07:33:38.076Z,92.60
2018-04-23T07:36:06.608Z,83.90
2018-04-23T07:38:36.345Z,93.10
2018-04-23T07:41:04.092Z,93.20
2018-04-23T07:43:38.350Z,92.10
2018-04-23T07:46:06.836Z,82.40
2018-04-23T07:48:41.920Z,80.30
2018-04-23T07:51:09.670Z,90.00
2018-04-23T07:53:38.675Z,91.40
2018-04-23T07:56:06.481Z,91.80
2018-04-23T07:58:37.053Z,82.60
2018-04-23T08:01:05.177Z,81.60
2018-04-23T08:03:33.984Z,90.00
2018-04-23T08:06:02.850Z,82.00
2018-04-23T08:08:44.793Z,82.10
2018-04-23T08:11:14.569Z,80.50
2018-04-23T08:16:42.750Z,80.40
2018-04-23T08:19:10.479Z,90.10
2018-04-23T08:21:39.579Z,79.70
2018-04-23T08:24:08.776Z,78.60
2018-04-23T08:26:40.038Z,89.00
2018-04-23T08:29:08.590Z,75.80
2018-04-23T08:31:47.434Z,77.00
2018-04-23T08:34:16.210Z,77.10
2018-04-23T08:36:51.937Z,78.30
2018-04-23T08:39:19.989Z,86.00
2018-04-23T08:41:58.472Z,73.80
2018-04-23T08:44:26.919Z,73.30
2018-04-23T08:50:06.343Z,79.40
2018-04-23T08:52:34.026Z,82.30
2018-04-23T08:57:57.711Z,82.70
2018-04-23T09:00:25.890Z,66.30
2018-04-23T09:03:10.674Z,78.30
2018-04-23T09:05:38.344Z,77.10
2018-04-23T09:08:23.045Z,77.80
2018-04-23T09:10:51.475Z,65.30
2018-04-23T09:13:20.180Z,76.80
2018-04-23T09:15:48.691Z,66.30
2018-04-23T09:18:16.452Z,78.20
2018-04-23T09:20:44.872Z,66.80
2018-04-23T09:23:12.609Z,74.70
2018-04-23T09:25:40.309Z,74.80
2018-04-23T09:28:08.852Z,66.60
2018-04-23T09:30:36.973Z,63.00
2018-04-23T09:33:20.620Z,64.40
2018-04-23T09:35:48.322Z,77.10
2018-04-23T09:38:28.870Z,64.50
2018-04-23T09:40:57.365Z,62.90
2018-04-23T09:46:20.432Z,62.10
2018-04-23T09:48:48.543Z,61.60
2018-04-23T09:51:18.786Z,66.70
2018-04-23T09:53:47.617Z,59.40
2018-04-23T09:56:36.800Z,69.90
2018-04-23T09:59:04.989Z,59.20
2018-04-23T10:01:44.998Z,58.80
2018-04-23T10:07:02.437Z,60.60
2018-04-23T10:09:32.004Z,59.40
2018-04-23T10:11:59.784Z,69.70
2018-04-23T10:14:29.554Z,70.40
2018-04-23T10:16:57.676Z,72.70
2018-04-23T10:19:26.361Z,74.10
2018-04-23T10:21:54.213Z,75.20
2018-04-23T10:24:25.629Z,72.20
2018-04-23T10:26:54.793Z,58.80
2018-04-23T10:29:27.197Z,57.10
2018-04-23T10:31:54.950Z,67.00
2018-04-23T10:34:23.593Z,67.60
2018-04-23T10:36:51.610Z,66.50
2018-04-23T10:39:33.088Z,56.50
2018-04-23T10:42:01.496Z,56.40
2018-04-23T10:44:31.244Z,67.10
2018-04-23T10:46:59.446Z,56.10
2018-04-23T10:49:28.137Z,57.80
2018-04-23T10:51:56.623Z,54.10
2018-04-23T10:54:24.746Z,58.10
2018-04-23T10:56:52.827Z,56.40
2018-04-23T10:59:20.720Z,64.20
2018-04-23T11:01:48.442Z,62.10
2018-04-23T11:04:17.527Z,55.40
2018-04-23T11:06:45.699Z,57.90
2018-04-23T11:09:14.243Z,56.90
2018-04-23T11:11:41.977Z,63.50
2018-04-23T11:14:10.656Z,65.20
2018-04-23T11:16:38.552Z,56.70
2018-04-23T11:19:07.454Z,53.20
2018-04-23T11:21:35.535Z,55.80
2018-04-23T11:24:03.343Z,61.40
2018-04-23T11:26:31.026Z,61.60
2018-04-23T11:31:27.814Z,62.30
2018-04-23T11:33:56.426Z,51.10
2018-04-23T11:38:54.535Z,49.50
2018-04-23T11:41:22.295Z,58.50
2018-04-23T11:43:50.220Z,58.10
2018-04-23T11:46:18.027Z,56.40
2018-04-23T11:48:50.429Z,48.70
2018-04-23T11:51:18.878Z,46.10
2018-04-23T11:53:47.542Z,56.00
2018-04-23T11:56:15.407Z,56.50
2018-04-23T11:58:49.864Z,55.00
2018-04-23T12:01:18.320Z,47.60
2018-04-23T12:03:50.025Z,57.90
2018-04-23T12:06:18.128Z,45.70
2018-04-23T12:09:00.240Z,46.90
2018-04-23T12:11:28.367Z,57.30
2018-04-23T12:14:01.573Z,46.70
2018-04-23T12:16:29.253Z,54.60
2018-04-23T12:18:57.712Z,48.50
2018-04-23T12:21:25.389Z,56.70
2018-04-23T12:23:55.051Z,56.80
2018-04-23T12:26:22.729Z,56.30
2018-04-23T12:28:57.173Z,46.90
2018-04-23T12:31:25.324Z,51.60
2018-04-23T12:33:58.200Z,57.10
2018-04-23T12:36:26.242Z,48.90
2018-04-23T12:39:02.321Z,57.90
2018-04-23T12:41:29.973Z,58.60
2018-04-23T12:43:59.009Z,47.30
2018-04-23T12:46:27.134Z,47.50
2018-04-23T12:48:55.828Z,56.60
2018-04-23T12:51:23.567Z,58.50
2018-04-23T12:54:10.634Z,48.70
2018-04-23T12:56:39.127Z,47.60
2018-04-23T12:59:26.048Z,48.10
2018-04-23T13:01:54.178Z,46.30
2018-04-23T13:04:33.185Z,45.70
2018-04-23T13:07:00.923Z,52.80
2018-04-23T13:15:22.607Z,46.20
2018-04-23T13:17:50.755Z,45.80
2018-04-23T13:20:20.531Z,55.30
2018-04-23T13:22:49.041Z,46.30
2018-04-23T13:25:16.710Z,52.80
2018-04-23T13:27:44.863Z,47.20
2018-04-23T13:30:36.426Z,54.10
2018-04-23T13:33:04.101Z,53.90
2018-04-23T13:38:41.249Z,47.10
2018-04-23T13:41:09.755Z,46.10
2018-04-23T13:43:47.939Z,45.60
2018-04-23T13:46:15.688Z,54.50
2018-04-23T13:48:49.204Z,53.30
2018-04-23T13:51:17.729Z,44.30
2018-04-23T13:54:03.646Z,53.10
2018-04-23T13:56:32.157Z,45.50
2018-04-23T14:02:04.252Z,54.00
2018-04-23T14:04:31.969Z,52.60
2018-04-23T14:07:01.716Z,53.30
2018-04-23T14:09:29.477Z,55.50
2018-04-23T14:15:11.897Z,56.70
2018-04-23T14:17:40.015Z,47.40
2018-04-23T14:20:28.108Z,57.50
2018-04-23T14:22:55.816Z,56.60
2018-04-23T14:25:34.826Z,55.70
2018-04-23T14:28:02.488Z,51.90
2018-04-23T14:30:34.482Z,47.30
2018-04-23T14:33:02.536Z,53.00
2018-04-23T14:35:36.600Z,51.80
2018-04-23T14:38:05.020Z,46.90
2018-04-23T14:40:50.294Z,44.70
2018-04-23T14:43:18.019Z,52.90
2018-04-23T14:45:48.555Z,46.10
2018-04-23T14:48:16.649Z,47.20
2018-04-23T14:50:48.775Z,47.90
2018-04-23T14:53:16.855Z,43.20
2018-04-23T14:55:48.443Z,45.40
2018-04-23T14:58:17.033Z,45.50
2018-04-23T15:00:51.873Z,53.70
2018-04-23T15:03:20.292Z,46.90
2018-04-23T15:05:50.370Z,47.80
2018-04-23T15:08:18.150Z,57.50
2018-04-23T15:10:46.625Z,47.50
2018-04-23T15:13:14.395Z,55.50
2018-04-23T15:15:46.685Z,55.30
2018-04-23T15:18:15.195Z,46.30
2018-04-23T15:20:45.636Z,46.60
2018-04-23T15:23:13.490Z,55.30
2018-04-23T15:25:49.323Z,57.40
2018-04-23T15:28:17.903Z,50.70
2018-04-23T15:30:59.018Z,49.10
2018-04-23T15:33:27.845Z,48.80
2018-04-23T15:35:55.737Z,57.50
2018-04-23T15:38:23.911Z,49.30
2018-04-23T15:41:01.600Z,50.10
2018-04-23T15:43:29.352Z,58.60
2018-04-23T15:45:58.277Z,51.20
2018-04-23T15:48:26.384Z,51.40
2018-04-23T15:50:54.563Z,55.30
2018-04-23T15:53:22.607Z,55.70
2018-04-23T15:55:50.452Z,61.10
2018-04-23T15:58:18.243Z,61.60
2018-04-23T16:00:48.671Z,51.30
2018-04-23T16:03:17.199Z,51.50
2018-04-23T16:05:49.301Z,51.80
2018-04-23T16:08:17.095Z,63.60
2018-04-23T16:10:45.845Z,58.40
2018-04-23T16:13:13.512Z,62.60
2018-04-23T16:18:43.185Z,52.50
2018-04-23T16:21:11.761Z,52.70
2018-04-23T16:23:40.493Z,61.50
2018-04-23T16:26:08.184Z,59.70
2018-04-23T16:28:36.975Z,63.20
2018-04-23T16:31:04.668Z,65.10
2018-04-23T16:33:32.416Z,64.90
2018-04-23T16:36:00.139Z,64.60
2018-04-23T16:38:27.938Z,64.60
2018-04-23T16:40:56.051Z,53.60
2018-04-23T16:43:31.608Z,62.50
2018-04-23T16:46:00.125Z,52.90
2018-04-23T16:48:29.909Z,61.10
2018-04-23T16:50:58.402Z,50.70
2018-04-23T16:53:26.527Z,49.70
2018-04-23T16:55:54.209Z,58.20
2018-04-23T16:58:25.795Z,58.50
2018-04-23T17:00:53.508Z,58.40
2018-04-23T17:03:27.579Z,52.30
2018-04-23T17:05:55.242Z,63.80
2018-04-23T17:08:23.983Z,64.70
2018-04-23T17:10:51.742Z,65.40
2018-04-23T17:13:19.462Z,66.60
2018-04-23T17:15:48.279Z,55.80
2018-04-23T17:18:19.526Z,67.70
2018-04-23T17:20:48.781Z,56.70
2018-04-23T17:23:16.997Z,56.60
2018-04-23T17:25:45.122Z,56.80
2018-04-23T17:28:12.834Z,67.70
2018-04-23T17:30:40.947Z,56.90
2018-04-23T17:33:21.540Z,55.70
2018-04-23T17:35:49.269Z,67.70
2018-04-23T17:38:29.328Z,67.50
2018-04-23T17:40:57.790Z,55.40
2018-04-23T17:43:30.111Z,55.50
2018-04-23T17:45:59.065Z,56.20
2018-04-23T17:48:27.557Z,57.10
2018-04-23T17:50:56.019Z,57.30
2018-04-23T17:53:29.085Z,69.00
2018-04-23T17:55:56.767Z,68.30
2018-04-23T17:58:26.260Z,58.60
2018-04-23T18:00:53.969Z,71.40
2018-04-23T18:06:15.137Z,70.20
2018-04-23T18:08:42.865Z,72.50
2018-04-23T18:11:11.317Z,59.60
2018-04-23T18:13:39.375Z,58.80
2018-04-23T18:16:09.549Z,58.70
2018-04-23T18:26:21.831Z,59.90
2018-04-23T18:28:49.585Z,69.50
2018-04-23T18:31:25.101Z,60.80
2018-04-23T18:33:52.804Z,75.10
2018-04-23T18:36:21.630Z,75.30
2018-04-23T18:38:50.523Z,61.60
2018-04-23T18:41:36.073Z,61.80
2018-04-23T18:44:04.365Z,62.40
2018-04-23T18:46:34.871Z,63.70
2018-04-23T18:49:04.133Z,63.90
2018-04-23T18:51:33.355Z,63.80
2018-04-23T18:54:01.948Z,64.50
2018-04-23T18:56:37.378Z,79.10
2018-04-23T18:59:05.116Z,77.30
2018-04-23T19:01:34.816Z,73.60
2018-04-23T19:04:03.846Z,80.70
2018-04-23T19:06:32.828Z,67.70
2018-04-23T19:09:02.042Z,80.40
2018-04-23T19:11:35.878Z,78.50
2018-04-23T19:14:05.359Z,66.80
2018-04-23T19:16:39.036Z,78.70
2018-04-23T19:19:08.279Z,67.20
2018-04-23T19:21:56.049Z,66.90
2018-04-23T19:24:25.278Z,67.70
2018-04-23T19:26:58.061Z,67.80
2018-04-23T19:29:25.718Z,79.90
2018-04-23T19:31:54.439Z,76.70
2018-04-23T19:34:23.087Z,69.50
2018-04-23T19:36:51.933Z,68.40
2018-04-23T19:39:19.605Z,82.90
2018-04-23T19:44:16.451Z,83.50
2018-04-23T19:49:13.633Z,73.90
2018-04-23T19:51:41.887Z,71.60
2018-04-23T19:54:11.559Z,72.20
2018-04-23T19:56:40.316Z,72.80
2018-04-23T19:59:08.041Z,84.80
2018-04-23T20:01:42.263Z,74.00
2018-04-23T20:04:10.039Z,87.60
2018-04-23T20:06:38.495Z,72.90
2018-04-23T20:09:06.620Z,75.10
2018-04-23T20:11:34.813Z,73.30
2018-04-23T20:14:02.970Z,72.10
2018-04-23T20:16:34.226Z,72.20
2018-04-23T20:19:01.939Z,80.70
2018-04-23T20:21:31.190Z,72.20
2018-04-23T20:23:59.285Z,74.00
2018-04-23T20:29:04.143Z,73.40
2018-04-23T20:31:33.145Z,74.00
2018-04-23T20:34:01.621Z,75.10
2018-04-23T20:36:31.753Z,74.40
2018-04-23T20:39:01.063Z,74.60
2018-04-23T20:41:32.676Z,89.60
2018-04-23T20:44:00.404Z,90.00
2018-04-23T20:46:31.890Z,75.00
2018-04-23T20:49:00.373Z,76.70
2018-04-23T20:51:31.413Z,88.10
2018-04-23T20:53:59.902Z,75.00
2018-04-23T20:56:34.678Z,82.40
2018-04-23T20:59:03.719Z,76.60
2018-04-23T21:01:31.843Z,76.10
2018-04-23T21:04:00.318Z,76.90
2018-04-23T21:06:36.056Z,91.60
2018-04-23T21:09:03.806Z,91.70
2018-04-23T21:11:35.071Z,78.30
2018-04-23T21:14:03.748Z,92.30
2018-04-23T21:16:31.541Z,92.30
2018-04-23T21:19:00.346Z,79.90
2018-04-23T21:21:31.935Z,92.90
2018-04-23T21:24:00.405Z,80.70
2018-04-23T21:26:38.156Z,92.50
2018-04-23T21:29:05.927Z,93.50
2018-04-23T21:31:33.664Z,93.30
2018-04-23T21:34:01.752Z,81.90
2018-04-23T21:36:30.881Z,82.50
2018-04-23T21:38:59.371Z,83.40
2018-04-23T21:41:29.859Z,83.80
2018-04-23T21:43:57.609Z,94.50
2018-04-23T21:46:25.744Z,83.80
2018-04-23T21:48:54.715Z,84.10
2018-04-23T21:51:23.371Z,93.30
2018-04-23T21:53:51.789Z,84.40
2018-04-23T21:56:19.865Z,84.90
2018-04-23T21:58:47.987Z,87.30
2018-04-23T22:01:18.323Z,84.90
2018-04-23T22:03:46.730Z,85.30
2018-04-23T22:06:27.978Z,85.70
2018-04-23T22:08:55.696Z,95.60
2018-04-23T22:11:42.253Z,87.40
2018-04-23T22:14:10.001Z,96.20
2018-04-23T22:16:45.023Z,87.50
2018-04-23T22:19:13.836Z,87.90
2018-04-23T22:21:43.065Z,91.40
2018-04-23T22:24:10.733Z,96.70
2018-04-23T22:26:49.057Z,90.00
2018-04-23T22:29:17.165Z,88.20
2018-04-23T22:31:48.800Z,96.30
2018-04-23T22:34:16.495Z,96.50
2018-04-23T22:36:54.217Z,96.90
2018-04-23T22:39:22.739Z,90.00
2018-04-23T22:41:51.200Z,89.10
2018-04-23T22:44:18.899Z,96.30
2018-04-23T22:46:47.005Z,91.80
2018-04-23T22:49:15.482Z,89.90
2018-04-23T22:51:45.275Z,97.50
2018-04-23T22:54:14.102Z,90.40
2018-04-23T22:56:45.703Z,90.00
2018-04-23T22:59:13.837Z,90.00
2018-04-23T23:01:41.620Z,94.90
2018-04-23T23:04:10.171Z,90.50
2018-04-23T23:06:44.477Z,90.30
2018-04-23T23:09:13.105Z,92.70
2018-04-23T23:11:51.233Z,90.30
2018-04-23T23:14:18.968Z,97.70
2018-04-23T23:16:50.484Z,90.30
2018-04-23T23:19:18.620Z,89.70
2018-04-23T23:21:46.295Z,97.80
2018-04-23T23:24:14.024Z,97.50
2018-04-23T23:26:44.245Z,90.00
2018-04-23T23:29:12.741Z,90.40
2018-04-23T23:31:42.453Z,93.90
2018-04-23T23:34:10.224Z,97.60
2018-04-23T23:36:39.037Z,97.90
2018-04-23T23:39:06.744Z,95.00
2018-04-23T23:41:36.205Z,90.70
2018-04-23T23:44:04.270Z,98.00
2018-04-23T23:46:42.602Z,98.00
2018-04-23T23:49:10.348Z,95.20
2018-04-23T23:51:43.322Z,98.70
2018-04-23T23:54:11.114Z,98.80
2018-04-23T23:56:39.837Z,95.80
2018-04-23T23:59:07.936Z,91.30
